createdAt,value
2023-05-21T00:01:07.855Z,16.20
2023-05-21T00:06:03.826Z,16.95
2023-05-21T00:08:31.035Z,16.92
2023-05-21T00:10:57.770Z,17.27
2023-05-21T00:13:24.465Z,16.67
2023-05-21T00:15:51.282Z,16.55
2023-05-21T00:18:18.224Z,15.82
2023-05-21T00:20:45.863Z,16.27
2023-05-21T00:23:12.675Z,16.65
2023-05-21T00:25:39.424Z,17.38
2023-05-21T00:28:06.144Z,15.93
2023-05-21T00:30:32.921Z,17.25
2023-05-21T00:33:02.500Z,16.45
2023-05-21T00:35:29.438Z,15.98
2023-05-21T00:37:56.453Z,16.88
2023-05-21T00:40:23.267Z,15.63
2023-05-21T00:42:50.118Z,15.60
2023-05-21T00:45:16.864Z,15.90
2023-05-21T00:47:44.195Z,17.05
2023-05-21T00:50:12.012Z,16.65
2023-05-21T00:52:42.037Z,15.98
2023-05-21T00:55:09.976Z,15.70
2023-05-21T00:57:37.290Z,16.13
2023-05-21T01:00:08.690Z,16.60
2023-05-21T01:02:37.231Z,16.35
2023-05-21T01:05:06.058Z,16.13
2023-05-21T01:07:34.845Z,15.48
2023-05-21T01:10:06.566Z,15.77
2023-05-21T01:12:34.788Z,15.02
2023-05-21T01:15:05.743Z,17.52
2023-05-21T01:17:34.288Z,16.55
2023-05-21T01:20:01.709Z,15.20
2023-05-21T01:22:32.312Z,15.60
2023-05-21T01:25:02.694Z,16.65
2023-05-21T01:27:29.461Z,16.48
2023-05-21T01:29:57.093Z,15.63
2023-05-21T01:32:42.532Z,14.95
2023-05-21T01:35:13.289Z,15.35
2023-05-21T01:37:55.807Z,15.73
2023-05-21T01:40:50.035Z,16.08
2023-05-21T01:43:18.257Z,16.52
2023-05-21T01:45:46.425Z,15.60
2023-05-21T01:48:13.363Z,15.98
2023-05-21T01:50:41.688Z,15.75
2023-05-21T01:53:08.365Z,16.70
2023-05-21T01:55:35.817Z,15.60
2023-05-21T01:58:02.838Z,15.60
2023-05-21T02:00:30.885Z,16.35
2023-05-21T02:02:58.666Z,16.30
2023-05-21T02:05:25.787Z,16.48
2023-05-21T02:07:52.733Z,15.55
2023-05-21T02:10:19.713Z,16.00
2023-05-21T02:12:46.590Z,15.38
2023-05-21T02:15:18.041Z,16.27
2023-05-21T02:17:51.383Z,15.48
2023-05-21T02:20:18.499Z,15.80
2023-05-21T02:22:47.024Z,15.05
2023-05-21T02:25:16.326Z,15.57
2023-05-21T02:27:43.788Z,14.75
2023-05-21T02:30:12.351Z,15.20
2023-05-21T02:32:42.823Z,16.75
2023-05-21T02:35:11.596Z,15.60
2023-05-21T02:37:40.387Z,16.67
2023-05-21T02:40:08.116Z,16.13
2023-05-21T02:42:36.610Z,14.98
2023-05-21T02:45:03.802Z,15.57
2023-05-21T02:47:30.572Z,14.40
2023-05-21T02:50:00.210Z,14.90
2023-05-21T02:54:53.889Z,15.13
2023-05-21T02:57:20.892Z,15.15
2023-05-21T02:59:47.525Z,16.02
2023-05-21T03:02:14.273Z,16.02
2023-05-21T03:04:46.369Z,14.70
2023-05-21T03:07:20.298Z,16.15
2023-05-21T03:09:47.255Z,16.23
2023-05-21T03:12:13.981Z,15.35
2023-05-21T03:14:44.004Z,15.25
2023-05-21T03:17:14.030Z,15.57
2023-05-21T03:19:41.926Z,14.73
2023-05-21T03:22:09.360Z,14.95
2023-05-21T03:24:36.946Z,15.45
2023-05-21T03:27:06.319Z,14.98
2023-05-21T03:29:33.669Z,13.90
2023-05-21T03:32:01.248Z,15.27
2023-05-21T03:34:28.055Z,15.02
2023-05-21T03:36:54.722Z,15.43
2023-05-21T03:39:21.390Z,13.82
2023-05-21T03:41:48.083Z,15.07
2023-05-21T03:44:14.725Z,14.88
2023-05-21T03:46:42.467Z,14.40
2023-05-21T03:49:09.201Z,15.02
2023-05-21T03:51:36.011Z,15.20
2023-05-21T03:54:02.675Z,14.82
2023-05-21T03:56:29.308Z,13.63
2023-05-21T03:58:56.126Z,14.27
2023-05-21T04:01:22.842Z,14.07
2023-05-21T04:03:49.759Z,15.52
2023-05-21T04:06:16.933Z,14.27
2023-05-21T04:08:44.466Z,14.48
2023-05-21T04:11:11.238Z,14.13
2023-05-21T04:13:38.809Z,14.50
2023-05-21T04:16:09.103Z,14.57
2023-05-21T04:18:36.732Z,15.57
2023-05-21T04:21:03.624Z,13.90
2023-05-21T04:23:30.261Z,14.10
2023-05-21T04:25:56.990Z,14.18
2023-05-21T04:28:24.046Z,14.48
2023-05-21T04:30:50.777Z,13.88
2023-05-21T04:33:18.224Z,14.18
2023-05-21T04:35:49.854Z,14.57
2023-05-21T04:38:20.235Z,14.15
2023-05-21T04:40:50.855Z,14.63
2023-05-21T04:43:17.811Z,14.85
2023-05-21T04:45:45.030Z,14.95
2023-05-21T04:48:12.588Z,14.00
2023-05-21T04:50:41.679Z,13.98
2023-05-21T04:53:08.865Z,14.38
2023-05-21T04:55:39.697Z,14.30
2023-05-21T04:58:07.286Z,14.10
2023-05-21T05:00:34.420Z,14.52
2023-05-21T05:03:01.258Z,13.48
2023-05-21T05:05:27.973Z,14.48
2023-05-21T05:07:54.742Z,13.95
2023-05-21T05:10:21.513Z,14.38
2023-05-21T05:12:48.800Z,13.50
2023-05-21T05:15:16.071Z,14.40
2023-05-21T05:17:42.762Z,14.90
2023-05-21T05:20:11.088Z,14.70
2023-05-21T05:22:37.934Z,14.23
2023-05-21T05:25:05.294Z,13.77
2023-05-21T05:27:31.906Z,13.85
2023-05-21T05:29:58.545Z,14.02
2023-05-21T05:32:25.361Z,14.38
2023-05-21T05:34:52.097Z,13.95
2023-05-21T05:37:18.731Z,13.52
2023-05-21T05:39:45.363Z,13.75
2023-05-21T05:42:12.060Z,14.57
2023-05-21T05:44:38.684Z,12.93
2023-05-21T05:47:09.139Z,14.80
2023-05-21T05:49:36.399Z,13.18
2023-05-21T05:52:03.440Z,13.45
2023-05-21T05:54:30.064Z,13.27
2023-05-21T05:56:56.702Z,12.57
2023-05-21T05:59:23.497Z,13.77
2023-05-21T06:01:50.298Z,13.27
2023-05-21T06:04:17.000Z,14.43
2023-05-21T06:06:43.663Z,12.48
2023-05-21T06:09:10.408Z,12.85
2023-05-21T06:11:37.066Z,13.05
2023-05-21T06:14:03.716Z,13.40
2023-05-21T06:16:33.912Z,13.18
2023-05-21T06:19:01.119Z,13.38
2023-05-21T06:21:27.818Z,14.13
2023-05-21T06:23:54.545Z,13.35
2023-05-21T06:26:21.901Z,13.85
2023-05-21T06:28:49.230Z,13.45
2023-05-21T06:31:16.406Z,15.27
2023-05-21T06:33:43.330Z,14.55
2023-05-21T06:36:10.108Z,13.98
2023-05-21T06:38:36.962Z,13.95
2023-05-21T06:41:04.216Z,14.13
2023-05-21T06:43:30.989Z,13.95
2023-05-21T06:45:57.763Z,13.18
2023-05-21T06:48:24.525Z,12.88
2023-05-21T06:50:51.200Z,13.40
2023-05-21T06:53:17.993Z,13.15
2023-05-21T06:55:45.097Z,14.30
2023-05-21T06:58:12.021Z,14.20
2023-05-21T07:00:38.763Z,13.63
2023-05-21T07:03:05.773Z,13.82
2023-05-21T07:05:32.625Z,13.27
2023-05-21T07:07:59.366Z,13.52
2023-05-21T07:10:26.109Z,13.30
2023-05-21T07:12:52.787Z,13.00
2023-05-21T07:15:19.529Z,13.15
2023-05-21T07:17:46.386Z,13.65
2023-05-21T07:20:13.742Z,14.52
2023-05-21T07:22:42.929Z,13.35
2023-05-21T07:25:09.789Z,14.57
2023-05-21T07:27:36.591Z,13.65
2023-05-21T07:30:03.626Z,13.50
2023-05-21T07:32:30.485Z,12.52
2023-05-21T07:35:01.903Z,13.95
2023-05-21T07:37:28.649Z,14.52
2023-05-21T07:39:58.145Z,13.93
2023-05-21T07:42:25.733Z,15.32
2023-05-21T07:44:52.558Z,13.45
2023-05-21T07:47:19.224Z,14.00
2023-05-21T07:49:45.946Z,13.02
2023-05-21T07:52:12.690Z,13.65
2023-05-21T07:54:39.370Z,13.88
2023-05-21T07:57:06.150Z,13.45
2023-05-21T07:59:33.608Z,13.57
2023-05-21T08:02:00.364Z,13.55
2023-05-21T08:04:27.160Z,13.85
2023-05-21T08:06:53.935Z,13.52
2023-05-21T08:09:20.581Z,14.07
2023-05-21T08:11:47.330Z,14.73
2023-05-21T08:14:14.054Z,12.85
2023-05-21T08:16:40.874Z,12.77
2023-05-21T08:19:07.647Z,13.95
2023-05-21T08:21:34.707Z,13.85
2023-05-21T08:24:02.765Z,13.57
2023-05-21T08:26:29.463Z,12.70
2023-05-21T08:28:56.494Z,13.55
2023-05-21T08:31:23.263Z,13.40
2023-05-21T08:33:54.213Z,13.73
2023-05-21T08:36:21.272Z,12.65
2023-05-21T08:38:48.140Z,13.38
2023-05-21T08:41:16.598Z,13.18
2023-05-21T08:43:46.829Z,13.05
2023-05-21T08:46:16.948Z,14.43
2023-05-21T08:48:44.361Z,14.05
2023-05-21T08:51:11.147Z,12.85
2023-05-21T08:53:37.985Z,13.05
2023-05-21T08:56:06.656Z,13.07
2023-05-21T08:58:33.791Z,12.03
2023-05-21T09:01:00.648Z,12.55
2023-05-21T09:03:29.380Z,12.98
2023-05-21T09:05:57.440Z,12.73
2023-05-21T09:08:34.985Z,12.52
2023-05-21T09:11:03.556Z,12.07
2023-05-21T09:13:31.619Z,11.77
2023-05-21T09:15:59.359Z,11.13
2023-05-21T09:18:27.663Z,10.63
2023-05-21T09:20:56.538Z,11.35
2023-05-21T09:23:23.333Z,12.05
2023-05-21T09:25:52.046Z,11.90
2023-05-21T09:28:19.578Z,11.82
2023-05-21T09:30:48.250Z,11.27
2023-05-21T09:33:25.837Z,12.38
2023-05-21T09:35:52.578Z,11.90
2023-05-21T09:38:23.652Z,11.23
2023-05-21T09:40:50.466Z,10.90
2023-05-21T09:43:17.471Z,10.88
2023-05-21T09:45:54.944Z,11.30
2023-05-21T09:48:44.133Z,11.88
2023-05-21T09:51:13.456Z,11.15
2023-05-21T09:53:54.819Z,10.93
2023-05-21T09:56:24.665Z,11.30
2023-05-21T09:59:00.401Z,11.93
2023-05-21T10:01:28.453Z,11.02
2023-05-21T10:03:57.192Z,11.43
2023-05-21T10:06:29.505Z,11.88
2023-05-21T10:08:57.751Z,11.27
2023-05-21T10:11:27.386Z,12.05
2023-05-21T10:14:07.250Z,11.10
2023-05-21T10:16:35.814Z,11.10
2023-05-21T10:19:03.356Z,11.10
2023-05-21T10:21:31.836Z,11.52
2023-05-21T10:23:58.697Z,11.63
2023-05-21T10:26:26.330Z,10.70
2023-05-21T10:28:55.102Z,11.02
2023-05-21T10:31:23.406Z,10.77
2023-05-21T10:33:54.784Z,11.10
2023-05-21T10:36:24.529Z,11.25
2023-05-21T10:38:51.585Z,11.50
2023-05-21T10:41:20.909Z,11.95
2023-05-21T10:44:29.861Z,11.57
2023-05-21T10:47:02.500Z,11.23
2023-05-21T10:49:54.698Z,10.95
2023-05-21T10:52:35.461Z,11.98
2023-05-21T10:55:28.374Z,11.18
2023-05-21T10:58:11.407Z,10.52
2023-05-21T11:00:38.828Z,11.23
2023-05-21T11:03:06.839Z,11.15
2023-05-21T11:05:54.333Z,11.43
2023-05-21T11:08:33.599Z,10.52
2023-05-21T11:11:00.715Z,10.00
2023-05-21T11:13:31.335Z,11.00
2023-05-21T11:15:58.204Z,10.85
2023-05-21T11:18:30.917Z,10.20
2023-05-21T11:21:11.073Z,10.20
2023-05-21T11:24:01.156Z,10.40
2023-05-21T11:26:30.393Z,11.30
2023-05-21T11:29:09.325Z,9.75
2023-05-21T11:34:32.715Z,10.18
2023-05-21T11:37:17.688Z,11.18
2023-05-21T11:39:48.612Z,11.13
2023-05-21T11:42:28.647Z,9.68
2023-05-21T11:45:00.503Z,9.90
2023-05-21T11:47:29.126Z,10.75
2023-05-21T11:49:57.144Z,8.70
2023-05-21T11:52:23.994Z,9.87
2023-05-21T11:54:56.705Z,9.70
2023-05-21T11:57:26.696Z,10.60
2023-05-21T11:59:53.362Z,10.50
2023-05-21T12:02:22.070Z,10.98
2023-05-21T12:04:50.458Z,9.60
2023-05-21T12:07:19.203Z,9.77
2023-05-21T12:09:49.474Z,10.15
2023-05-21T12:12:21.493Z,9.95
2023-05-21T12:14:52.070Z,9.60
2023-05-21T12:17:24.595Z,9.27
2023-05-21T12:19:53.522Z,9.27
2023-05-21T12:22:20.730Z,9.45
2023-05-21T12:24:48.826Z,9.05
2023-05-21T12:27:16.802Z,8.37
2023-05-21T12:29:45.504Z,9.13
2023-05-21T12:32:16.197Z,8.48
2023-05-21T12:34:47.030Z,8.50
2023-05-21T12:37:20.278Z,9.43
2023-05-21T12:39:55.747Z,8.55
2023-05-21T12:42:27.379Z,9.00
2023-05-21T12:44:54.344Z,8.68
2023-05-21T12:47:25.178Z,9.73
2023-05-21T12:49:55.490Z,8.88
2023-05-21T12:52:23.256Z,9.18
2023-05-21T12:54:51.978Z,8.10
2023-05-21T12:57:25.775Z,9.60
2023-05-21T12:59:53.483Z,9.43
2023-05-21T13:02:23.826Z,10.15
2023-05-21T13:05:04.992Z,9.25
2023-05-21T13:07:33.751Z,9.63
2023-05-21T13:12:29.796Z,9.43
2023-05-21T13:14:58.579Z,8.18
2023-05-21T13:20:23.763Z,8.80
2023-05-21T13:22:52.096Z,8.88
2023-05-21T13:25:21.793Z,9.00
2023-05-21T13:27:49.834Z,9.55
2023-05-21T13:30:16.713Z,10.00
2023-05-21T13:32:43.495Z,10.80
2023-05-21T13:35:12.006Z,9.45
2023-05-21T13:37:42.013Z,9.32
2023-05-21T13:40:16.943Z,10.48
2023-05-21T13:42:45.452Z,9.80
2023-05-21T13:45:14.972Z,8.88
2023-05-21T13:47:43.286Z,9.82
2023-05-21T13:50:10.793Z,8.77
2023-05-21T13:52:38.287Z,9.35
2023-05-21T13:55:06.031Z,9.50
2023-05-21T13:57:32.724Z,8.75
2023-05-21T13:59:59.800Z,8.85
2023-05-21T14:02:26.981Z,9.68
2023-05-21T14:04:53.938Z,9.18
2023-05-21T14:07:21.541Z,8.15
2023-05-21T14:09:48.600Z,9.18
2023-05-21T14:12:15.863Z,8.85
2023-05-21T14:14:42.735Z,8.90
2023-05-21T14:17:09.532Z,8.65
2023-05-21T14:19:36.350Z,9.43
2023-05-21T14:22:02.995Z,9.35
2023-05-21T14:24:29.710Z,8.18
2023-05-21T14:26:56.477Z,8.82
2023-05-21T14:29:23.376Z,8.98
2023-05-21T14:31:50.095Z,9.63
2023-05-21T14:34:16.918Z,8.88
2023-05-21T14:36:43.744Z,8.95
2023-05-21T14:39:10.606Z,8.63
2023-05-21T14:41:39.552Z,8.52
2023-05-21T14:44:06.277Z,8.65
2023-05-21T14:46:33.158Z,9.07
2023-05-21T14:49:00.684Z,8.50
2023-05-21T14:51:27.429Z,9.20
2023-05-21T14:53:54.329Z,9.23
2023-05-21T14:56:22.915Z,8.88
2023-05-21T14:58:49.646Z,9.50
2023-05-21T15:01:16.506Z,8.63
2023-05-21T15:03:43.281Z,9.10
2023-05-21T15:06:10.197Z,9.93
2023-05-21T15:08:36.829Z,8.00
2023-05-21T15:11:03.567Z,9.52
2023-05-21T15:13:30.517Z,8.40
2023-05-21T15:15:57.505Z,8.55
2023-05-21T15:18:24.823Z,8.63
2023-05-21T15:20:51.876Z,8.13
2023-05-21T15:23:18.694Z,8.77
2023-05-21T15:25:45.935Z,8.98
2023-05-21T15:28:12.944Z,8.88
2023-05-21T15:30:40.093Z,8.85
2023-05-21T15:33:06.733Z,11.98
2023-05-21T15:35:34.626Z,8.07
2023-05-21T15:38:01.599Z,8.65
2023-05-21T15:40:28.254Z,9.13
2023-05-21T15:42:54.927Z,38.83
2023-05-21T15:45:21.674Z,10.07
2023-05-21T15:47:48.770Z,8.45
2023-05-21T15:50:15.913Z,9.60
2023-05-21T15:52:42.966Z,9.23
2023-05-21T15:55:09.942Z,8.82
2023-05-21T15:57:36.598Z,8.52
2023-05-21T16:00:04.867Z,8.77
2023-05-21T16:02:31.735Z,8.50
2023-05-21T16:04:58.550Z,8.68
2023-05-21T16:07:25.405Z,9.02
2023-05-21T16:09:52.116Z,8.60
2023-05-21T16:12:18.863Z,9.05
2023-05-21T16:14:49.946Z,8.52
2023-05-21T16:17:17.071Z,8.55
2023-05-21T16:19:43.892Z,8.93
2023-05-21T16:22:11.037Z,9.00
2023-05-21T16:24:38.012Z,8.65
2023-05-21T16:27:05.028Z,8.65
2023-05-21T16:29:32.180Z,9.13
2023-05-21T16:31:58.933Z,9.43
2023-05-21T16:34:25.913Z,8.43
2023-05-21T16:36:52.914Z,8.98
2023-05-21T16:39:19.903Z,8.13
2023-05-21T16:41:46.685Z,8.60
2023-05-21T16:44:14.375Z,8.45
2023-05-21T16:46:41.277Z,8.00
2023-05-21T16:49:08.065Z,9.90
2023-05-21T16:51:34.862Z,9.00
2023-05-21T16:54:04.309Z,8.38
2023-05-21T16:56:31.796Z,8.45
2023-05-21T16:58:58.522Z,8.48
2023-05-21T17:01:25.422Z,8.48
2023-05-21T17:03:52.657Z,9.07
2023-05-21T17:06:20.040Z,8.55
2023-05-21T17:08:47.317Z,8.27
2023-05-21T17:11:14.169Z,9.00
2023-05-21T17:13:40.990Z,8.68
2023-05-21T17:16:07.878Z,8.77
2023-05-21T17:18:34.827Z,11.00
2023-05-21T17:21:01.734Z,8.68
2023-05-21T17:23:28.390Z,8.77
2023-05-21T17:25:55.118Z,8.00
2023-05-21T17:28:21.750Z,7.47
2023-05-21T17:30:49.628Z,8.50
2023-05-21T17:33:16.739Z,9.07
2023-05-21T17:35:43.502Z,14.07
2023-05-21T17:38:10.429Z,7.88
2023-05-21T17:40:37.371Z,8.50
2023-05-21T17:43:05.054Z,8.27
2023-05-21T17:45:31.981Z,8.90
2023-05-21T17:48:00.461Z,9.15
2023-05-21T17:50:27.758Z,8.30
2023-05-21T17:52:54.568Z,8.13
2023-05-21T17:55:21.331Z,8.63
2023-05-21T17:57:48.068Z,9.02
2023-05-21T18:00:14.927Z,8.57
2023-05-21T18:02:41.634Z,9.23
2023-05-21T18:05:08.607Z,9.18
2023-05-21T18:07:35.710Z,9.23
2023-05-21T18:10:02.355Z,8.48
2023-05-21T18:12:29.145Z,10.25
2023-05-21T18:14:55.967Z,9.63
2023-05-21T18:17:22.758Z,9.80
2023-05-21T18:19:50.468Z,8.88
2023-05-21T18:22:17.183Z,9.90
2023-05-21T18:24:44.064Z,8.77
2023-05-21T18:27:12.200Z,9.35
2023-05-21T18:29:38.819Z,10.38
2023-05-21T18:32:05.813Z,10.02
2023-05-21T18:34:32.568Z,10.15
2023-05-21T18:36:59.264Z,9.48
2023-05-21T18:39:27.753Z,9.90
2023-05-21T18:42:11.589Z,9.00
2023-05-21T18:44:39.906Z,9.40
2023-05-21T18:47:07.749Z,10.23
2023-05-21T18:49:35.790Z,9.00
2023-05-21T18:52:03.106Z,9.73
2023-05-21T18:54:29.727Z,9.13
2023-05-21T18:56:59.609Z,9.43
2023-05-21T18:59:27.193Z,8.93
2023-05-21T19:01:54.799Z,9.98
2023-05-21T19:04:21.619Z,9.57
2023-05-21T19:06:48.277Z,8.50
2023-05-21T19:09:14.984Z,8.98
2023-05-21T19:11:41.719Z,9.13
2023-05-21T19:14:08.476Z,9.77
2023-05-21T19:16:35.245Z,8.68
2023-05-21T19:19:03.122Z,8.93
2023-05-21T19:21:30.014Z,9.25
2023-05-21T19:23:56.759Z,8.77
2023-05-21T19:26:23.672Z,10.35
2023-05-21T19:28:53.207Z,10.77
2023-05-21T19:31:20.709Z,8.68
2023-05-21T19:33:47.480Z,8.73
2023-05-21T19:36:14.493Z,9.20
2023-05-21T19:38:50.793Z,9.23
2023-05-21T19:41:18.828Z,10.02
2023-05-21T19:43:46.209Z,24.05
2023-05-21T19:46:13.902Z,16.17
2023-05-21T19:48:41.598Z,20.90
2023-05-21T19:51:08.357Z,11.65
2023-05-21T19:53:35.201Z,10.32
2023-05-21T19:56:02.011Z,11.38
2023-05-21T19:58:30.346Z,11.23
2023-05-21T20:01:00.250Z,11.13
2023-05-21T20:03:27.993Z,16.98
2023-05-21T20:05:54.797Z,9.88
2023-05-21T20:08:21.940Z,9.65
2023-05-21T20:10:51.425Z,10.35
2023-05-21T20:13:19.021Z,10.95
2023-05-21T20:15:45.766Z,10.05
2023-05-21T20:18:12.759Z,12.05
2023-05-21T20:20:41.424Z,11.32
2023-05-21T20:23:08.594Z,10.30
2023-05-21T20:25:35.323Z,11.73
2023-05-21T20:28:03.324Z,11.05
2023-05-21T20:30:35.039Z,13.10
2023-05-21T20:33:02.797Z,13.98
2023-05-21T20:35:29.898Z,13.98
2023-05-21T20:37:56.669Z,11.30
2023-05-21T20:40:23.427Z,10.38
2023-05-21T20:42:51.914Z,10.30
2023-05-21T20:45:18.686Z,9.63
2023-05-21T20:47:45.512Z,9.50
2023-05-21T20:50:12.258Z,9.65
2023-05-21T20:52:39.080Z,10.75
2023-05-21T20:55:06.218Z,9.73
2023-05-21T20:57:33.100Z,10.25
2023-05-21T20:59:59.845Z,11.07
2023-05-21T21:02:26.932Z,10.73
2023-05-21T21:04:53.762Z,9.55
2023-05-21T21:07:20.579Z,9.95
2023-05-21T21:09:48.406Z,10.27
2023-05-21T21:12:25.818Z,11.13
2023-05-21T21:14:53.954Z,10.50
2023-05-21T21:17:20.996Z,11.27
2023-05-21T21:19:47.746Z,10.70
2023-05-21T21:22:16.164Z,10.48
2023-05-21T21:24:42.818Z,9.98
2023-05-21T21:27:09.731Z,10.85
2023-05-21T21:29:36.445Z,10.85
2023-05-21T21:32:03.234Z,10.05
2023-05-21T21:34:29.875Z,10.52
2023-05-21T21:36:56.511Z,10.05
2023-05-21T21:39:23.134Z,11.05
2023-05-21T21:41:49.869Z,10.60
2023-05-21T21:44:17.214Z,12.25
2023-05-21T21:46:43.887Z,10.90
2023-05-21T21:49:10.812Z,10.57
2023-05-21T21:51:37.519Z,12.50
2023-05-21T21:54:04.380Z,11.43
2023-05-21T21:56:31.207Z,10.13
2023-05-21T21:58:57.798Z,11.77
2023-05-21T22:01:24.769Z,11.40
2023-05-21T22:03:51.438Z,12.73
2023-05-21T22:06:18.151Z,12.40
2023-05-21T22:08:44.842Z,11.68
2023-05-21T22:11:11.766Z,12.45
2023-05-21T22:13:38.519Z,11.70
2023-05-21T22:16:05.606Z,12.43
2023-05-21T22:18:40.844Z,11.30
2023-05-21T22:21:14.062Z,12.60
2023-05-21T22:23:41.161Z,11.25
2023-05-21T22:26:08.816Z,13.35
2023-05-21T22:28:35.777Z,11.82
2023-05-21T22:31:02.734Z,12.10
2023-05-21T22:33:29.489Z,11.90
2023-05-21T22:35:56.808Z,11.95
2023-05-21T22:38:23.703Z,11.30
2023-05-21T22:40:50.665Z,11.38
2023-05-21T22:43:17.419Z,11.07
2023-05-21T22:45:44.375Z,11.10
2023-05-21T22:48:11.180Z,11.55
2023-05-21T22:50:39.034Z,11.05
2023-05-21T22:53:06.867Z,11.57
2023-05-21T22:55:33.555Z,11.10
2023-05-21T22:58:00.211Z,11.88
2023-05-21T23:00:27.383Z,11.85
2023-05-21T23:02:54.790Z,11.70
2023-05-21T23:05:22.138Z,11.23
2023-05-21T23:07:49.027Z,11.73
2023-05-21T23:10:15.879Z,11.88
2023-05-21T23:12:42.653Z,11.95
2023-05-21T23:15:10.100Z,11.40
2023-05-21T23:17:37.593Z,11.13
2023-05-21T23:20:05.628Z,12.18
2023-05-21T23:22:32.644Z,11.40
2023-05-21T23:24:59.344Z,10.63
2023-05-21T23:27:25.981Z,11.07
2023-05-21T23:29:52.646Z,11.70
2023-05-21T23:32:19.348Z,12.48
2023-05-21T23:34:46.351Z,12.20
2023-05-21T23:37:13.006Z,12.10
2023-05-21T23:39:39.824Z,11.75
2023-05-21T23:42:06.698Z,11.85
2023-05-21T23:44:33.402Z,12.15
2023-05-21T23:47:00.191Z,12.68
2023-05-21T23:49:26.830Z,12.23
2023-05-21T23:51:53.618Z,11.18
2023-05-21T23:54:20.316Z,11.75
2023-05-21T23:56:47.459Z,11.38
2023-05-21T23:59:16.150Z,10.90
